createdAt,value
2019-04-03T00:00:42.924Z,13.53
2019-04-03T00:03:12.350Z,12.70
2019-04-03T00:05:41.678Z,13.13
2019-04-03T00:08:11.017Z,13.70
2019-04-03T00:10:40.358Z,13.03
2019-04-03T00:13:11.151Z,14.10
2019-04-03T00:15:40.727Z,13.63
2019-04-03T00:18:10.062Z,13.10
2019-04-03T00:20:39.398Z,13.60
2019-04-03T00:23:08.740Z,13.93
2019-04-03T00:25:38.098Z,14.20
2019-04-03T00:28:07.436Z,14.50
2019-04-03T00:30:36.934Z,16.60
2019-04-03T00:33:06.289Z,15.43
2019-04-03T00:35:35.642Z,14.70
2019-04-03T00:38:04.965Z,14.20
2019-04-03T00:40:34.302Z,13.47
2019-04-03T00:43:03.660Z,13.60
2019-04-03T00:45:32.973Z,14.80
2019-04-03T00:48:02.324Z,15.60
2019-04-03T00:50:31.656Z,14.90
2019-04-03T00:53:00.990Z,14.23
2019-04-03T00:55:30.355Z,14.10
2019-04-03T00:57:59.738Z,14.33
2019-04-03T01:00:29.238Z,13.30
2019-04-03T01:02:59.119Z,14.47
2019-04-03T01:05:29.062Z,14.37
2019-04-03T01:07:59.827Z,14.37
2019-04-03T01:10:29.884Z,14.87
2019-04-03T01:13:01.371Z,14.67
2019-04-03T01:15:31.593Z,13.77
2019-04-03T01:18:02.912Z,13.30
2019-04-03T01:20:32.500Z,14.17
2019-04-03T01:23:01.821Z,14.80
2019-04-03T01:25:31.167Z,13.80
2019-04-03T01:28:00.493Z,14.10
2019-04-03T01:30:29.835Z,14.80
2019-04-03T01:32:59.160Z,14.03
2019-04-03T01:35:28.493Z,14.30
2019-04-03T01:37:57.828Z,14.93
2019-04-03T01:40:27.199Z,16.03
2019-04-03T01:42:56.570Z,16.27
2019-04-03T01:45:26.289Z,16.97
2019-04-03T01:47:57.469Z,16.20
2019-04-03T01:50:28.325Z,16.10
2019-04-03T01:52:57.874Z,17.47
2019-04-03T01:55:27.203Z,16.77
2019-04-03T01:57:56.546Z,18.10
2019-04-03T02:00:25.880Z,17.10
2019-04-03T02:02:55.218Z,17.90
2019-04-03T02:05:25.028Z,18.77
2019-04-03T02:07:54.441Z,18.10
2019-04-03T02:10:25.243Z,18.63
2019-04-03T02:12:54.567Z,18.57
2019-04-03T02:15:23.980Z,18.50
2019-04-03T02:17:54.897Z,18.47
2019-04-03T02:20:26.510Z,18.10
2019-04-03T02:22:55.627Z,19.00
2019-04-03T02:25:24.962Z,19.10
2019-04-03T02:27:54.474Z,18.13
2019-04-03T02:30:23.795Z,18.77
2019-04-03T02:32:56.621Z,18.43
2019-04-03T02:35:24.166Z,18.10
2019-04-03T02:37:53.585Z,18.33
2019-04-03T02:40:22.907Z,20.20
2019-04-03T02:42:52.401Z,18.40
2019-04-03T02:45:23.983Z,20.07
2019-04-03T02:47:53.283Z,18.87
2019-04-03T02:50:26.132Z,19.00
2019-04-03T02:52:58.005Z,18.50
2019-04-03T02:55:26.828Z,18.60
2019-04-03T02:57:56.194Z,19.60
2019-04-03T03:00:25.536Z,19.43
2019-04-03T03:02:54.995Z,17.83
2019-04-03T03:05:26.879Z,19.53
2019-04-03T03:07:55.475Z,19.17
2019-04-03T03:10:24.941Z,18.93
2019-04-03T03:12:55.401Z,20.80
2019-04-03T03:15:26.870Z,18.60
2019-04-03T03:17:56.538Z,18.63
2019-04-03T03:20:28.315Z,18.20
2019-04-03T03:22:58.002Z,18.07
2019-04-03T03:25:27.477Z,19.03
2019-04-03T03:27:57.405Z,18.07
2019-04-03T03:30:36.295Z,20.20
2019-04-03T03:33:22.724Z,19.73
2019-04-03T03:35:40.516Z,19.43
2019-04-03T03:38:06.321Z,19.87
2019-04-03T03:40:35.102Z,19.00
2019-04-03T03:43:06.071Z,19.33
2019-04-03T03:45:35.615Z,18.57
2019-04-03T03:48:08.192Z,19.70
2019-04-03T03:50:36.911Z,20.00
2019-04-03T03:53:10.755Z,19.63
2019-04-03T03:55:38.787Z,18.53
2019-04-03T03:58:11.598Z,18.20
2019-04-03T04:00:39.799Z,18.73
2019-04-03T04:03:11.111Z,17.87
2019-04-03T04:05:40.271Z,18.20
2019-04-03T04:08:11.354Z,18.53
2019-04-03T04:10:42.272Z,18.40
2019-04-03T07:10:02.367Z,18.27
2019-04-03T07:12:33.447Z,18.77
2019-04-03T07:15:03.469Z,17.73
2019-04-03T07:17:33.046Z,15.87
2019-04-03T07:20:12.524Z,16.03
2019-04-03T07:22:34.099Z,15.57
2019-04-03T07:25:04.548Z,15.27
2019-04-03T07:27:36.607Z,15.03
2019-04-03T07:30:07.207Z,15.20
2019-04-03T07:32:36.940Z,15.20
2019-04-03T07:35:09.790Z,14.83
2019-04-03T07:37:41.064Z,15.07
2019-04-03T07:40:10.843Z,14.53
2019-04-03T07:42:40.420Z,14.97
2019-04-03T07:45:10.070Z,15.43
2019-04-03T07:47:39.588Z,16.43
2019-04-03T07:50:11.257Z,15.37
2019-04-03T07:52:40.571Z,17.00
2019-04-03T07:55:10.171Z,17.50
2019-04-03T07:57:41.423Z,18.10
2019-04-03T08:00:11.801Z,18.07
2019-04-03T08:02:46.922Z,19.53
2019-04-03T08:05:12.574Z,17.33
2019-04-03T08:07:42.058Z,18.13
2019-04-03T08:10:11.774Z,18.30
2019-04-03T08:12:41.394Z,17.27
2019-04-03T08:15:13.472Z,20.23
2019-04-03T08:17:42.943Z,20.80
2019-04-03T08:20:12.801Z,20.77
2019-04-03T08:22:42.199Z,17.70
2019-04-03T08:25:12.543Z,21.43
2019-04-03T08:27:42.391Z,20.10
2019-04-03T08:30:12.399Z,20.27
2019-04-03T08:32:42.444Z,25.57
2019-04-03T08:39:20.511Z,20.67
2019-04-03T08:41:50.832Z,21.30
2019-04-03T08:44:51.256Z,21.47
2019-04-03T08:54:11.985Z,20.67
2019-04-03T08:56:41.352Z,21.77
2019-04-03T08:59:12.869Z,20.53
2019-04-03T09:01:41.934Z,21.33
2019-04-03T09:04:11.440Z,22.00
2019-04-03T09:06:40.954Z,22.00
2019-04-03T09:09:11.496Z,22.47
2019-04-03T09:11:41.641Z,23.37
2019-04-03T09:14:12.262Z,23.77
2019-04-03T09:16:42.341Z,22.53
2019-04-03T09:19:12.556Z,22.70
2019-04-03T09:21:42.638Z,23.37
2019-04-03T09:24:12.631Z,23.23
2019-04-03T09:26:42.654Z,23.53
2019-04-03T09:29:13.372Z,22.43
2019-04-03T09:31:43.207Z,23.23
2019-04-03T09:34:14.322Z,23.67
2019-04-03T09:36:45.609Z,25.23
2019-04-03T09:39:15.198Z,23.70
2019-04-03T09:41:44.855Z,23.43
2019-04-03T09:44:20.686Z,25.23
2019-04-03T09:46:51.158Z,23.90
2019-04-03T09:49:20.557Z,24.70
2019-04-03T09:51:52.907Z,24.17
2019-04-03T09:54:23.022Z,23.70
2019-04-03T09:57:04.201Z,24.60
2019-04-03T09:59:29.691Z,25.57
2019-04-03T10:01:59.321Z,25.37
2019-04-03T10:04:28.869Z,25.10
2019-04-03T10:06:59.887Z,26.63
2019-04-03T10:09:30.129Z,25.93
2019-04-03T10:11:59.928Z,26.67
2019-04-03T10:14:31.249Z,24.27
2019-04-03T10:17:01.066Z,25.03
2019-04-03T10:19:30.872Z,25.53
2019-04-03T10:22:00.839Z,27.40
2019-04-03T10:24:31.083Z,24.20
2019-04-03T10:27:01.777Z,26.90
2019-04-03T10:29:31.583Z,25.63
2019-04-03T10:32:01.083Z,25.80
2019-04-03T10:34:30.536Z,27.40
2019-04-03T10:36:59.906Z,25.80
2019-04-03T10:39:30.155Z,25.97
2019-04-03T10:42:00.397Z,26.30
2019-04-03T10:44:30.851Z,27.90
2019-04-03T10:47:00.269Z,26.97
2019-04-03T10:49:30.044Z,28.20
2019-04-03T10:52:01.372Z,27.20
2019-04-03T10:54:30.870Z,28.63
2019-04-03T10:57:02.442Z,27.53
2019-04-03T10:59:31.626Z,29.47
2019-04-03T11:02:01.159Z,29.67
2019-04-03T11:04:34.280Z,29.97
2019-04-03T11:07:11.238Z,32.00
2019-04-03T11:09:40.710Z,29.07
2019-04-03T11:12:10.626Z,30.73
2019-04-03T11:14:40.471Z,32.87
2019-04-03T11:17:10.356Z,27.07
2019-04-03T11:19:39.882Z,27.20
2019-04-03T11:22:09.496Z,27.90
2019-04-03T11:24:42.096Z,27.20
2019-04-03T11:27:12.374Z,29.20
2019-04-03T11:29:42.905Z,29.80
2019-04-03T11:32:12.956Z,24.60
2019-04-03T11:34:42.521Z,26.90
2019-04-03T11:37:12.013Z,25.77
2019-04-03T11:39:41.508Z,24.77
2019-04-03T11:42:22.181Z,23.93
2019-04-03T11:44:42.445Z,24.47
2019-04-03T11:47:13.521Z,23.97
2019-04-03T11:49:43.339Z,23.50
2019-04-03T11:52:13.071Z,25.50
2019-04-03T11:54:42.788Z,24.97
2019-04-03T11:57:12.214Z,25.63
2019-04-03T11:59:41.696Z,22.93
2019-04-03T12:02:12.030Z,23.20
2019-04-03T12:04:43.150Z,23.60
2019-04-03T12:07:12.917Z,23.93
2019-04-03T12:09:42.706Z,20.77
2019-04-03T12:12:12.237Z,22.77
2019-04-03T12:14:41.611Z,22.67
2019-04-03T12:17:11.008Z,21.40
2019-04-03T12:19:45.485Z,23.13
2019-04-03T12:22:16.371Z,29.67
2019-04-03T12:24:45.997Z,22.27
2019-04-03T12:27:28.539Z,22.23
2019-04-03T12:29:58.371Z,21.00
2019-04-03T12:32:37.441Z,21.30
2019-04-03T12:34:59.032Z,21.73
2019-04-03T12:37:28.552Z,22.03
2019-04-03T12:39:58.237Z,22.40
2019-04-03T12:42:29.187Z,20.53
2019-04-03T12:44:58.631Z,20.73
2019-04-03T12:47:28.512Z,21.30
2019-04-03T12:49:58.397Z,21.70
2019-04-03T12:52:27.969Z,20.80
2019-04-03T12:54:57.512Z,26.27
2019-04-03T12:57:26.994Z,22.43
2019-04-03T12:59:56.739Z,21.60
2019-04-03T13:02:28.926Z,29.23
2019-04-03T13:05:16.516Z,27.90
2019-04-03T13:10:48.051Z,25.90
2019-04-03T13:13:16.286Z,31.60
2019-04-03T13:15:46.091Z,31.10
2019-04-03T13:18:15.602Z,39.63
2019-04-03T13:20:45.036Z,35.53
2019-04-03T13:23:15.191Z,32.17
2019-04-03T13:25:45.331Z,45.40
2019-04-03T13:28:15.132Z,34.53
2019-04-03T13:30:45.253Z,32.67
2019-04-03T13:33:16.721Z,32.03
2019-04-03T13:35:47.160Z,29.67
2019-04-03T13:38:16.838Z,37.70
2019-04-03T13:40:46.258Z,35.90
2019-04-03T13:43:15.636Z,32.30
2019-04-03T13:45:45.167Z,30.47
2019-04-03T13:48:14.539Z,27.23
2019-04-03T13:50:45.886Z,26.37
2019-04-03T13:53:15.120Z,25.27
2019-04-03T13:55:44.509Z,24.40
2019-04-03T13:58:13.898Z,27.00
2019-04-03T14:00:52.107Z,27.13
2019-04-03T14:03:17.617Z,25.57
2019-04-03T14:05:45.459Z,25.50
2019-04-03T14:08:15.282Z,25.67
2019-04-03T14:10:45.082Z,25.70
2019-04-03T14:13:14.527Z,35.50
2019-04-03T14:15:43.915Z,34.47
2019-04-03T14:18:13.319Z,30.93
2019-04-03T14:20:42.780Z,38.60
2019-04-03T14:23:12.334Z,34.50
2019-04-03T14:25:48.025Z,25.77
2019-04-03T14:28:24.717Z,32.90
2019-04-03T14:31:00.449Z,32.43
2019-04-03T14:33:42.180Z,37.93
2019-04-03T14:36:02.731Z,29.73
2019-04-03T14:38:33.034Z,28.53
2019-04-03T14:41:36.404Z,31.97
2019-04-03T14:44:10.586Z,28.90
2019-04-03T14:46:40.256Z,27.13
2019-04-03T14:49:10.401Z,27.23
2019-04-03T14:51:39.852Z,24.13
2019-04-03T14:54:09.256Z,22.27
2019-04-03T14:56:39.121Z,22.93
2019-04-03T14:59:09.034Z,23.13
2019-04-03T15:01:38.634Z,22.80
2019-04-03T15:04:22.970Z,22.87
2019-04-03T15:07:02.149Z,21.47
2019-04-03T15:09:30.213Z,20.03
2019-04-03T15:12:01.730Z,19.93
2019-04-03T15:14:31.125Z,16.77
2019-04-03T15:17:04.152Z,18.87
2019-04-03T15:19:32.356Z,19.73
2019-04-03T15:22:06.540Z,20.93
2019-04-03T15:24:38.430Z,21.33
2019-04-03T15:27:08.173Z,22.27
2019-04-03T15:29:38.819Z,23.63
2019-04-03T15:32:08.640Z,26.23
2019-04-03T15:40:58.646Z,23.50
2019-04-03T15:43:34.222Z,21.33
2019-04-03T15:46:04.237Z,17.63
2019-04-03T15:48:33.727Z,18.47
2019-04-03T15:51:05.587Z,19.73
2019-04-03T15:53:34.563Z,18.07
2019-04-03T15:56:04.767Z,19.77
2019-04-03T15:58:34.299Z,20.63
2019-04-03T16:01:06.824Z,19.60
2019-04-03T16:03:35.539Z,19.03
2019-04-03T16:06:05.202Z,18.93
2019-04-03T16:08:34.600Z,19.13
2019-04-03T16:11:04.124Z,19.83
2019-04-03T16:13:33.962Z,18.60
2019-04-03T16:16:03.850Z,17.80
2019-04-03T16:18:33.323Z,17.57
2019-04-03T16:21:02.823Z,18.43
2019-04-03T16:23:38.159Z,18.20
2019-04-03T16:26:08.247Z,16.60
2019-04-03T16:28:37.664Z,18.63
2019-04-03T16:31:07.310Z,19.17
2019-04-03T16:33:37.512Z,21.97
2019-04-03T16:36:07.065Z,21.67
2019-04-03T16:38:37.016Z,20.33
2019-04-03T16:41:09.131Z,22.07
2019-04-03T16:43:37.791Z,22.47
2019-04-03T16:46:09.882Z,21.23
2019-04-03T16:48:39.245Z,21.83
2019-04-03T16:51:09.139Z,22.33
2019-04-03T16:53:39.403Z,19.77
2019-04-03T16:56:09.431Z,22.13
2019-04-03T16:58:38.835Z,19.57
2019-04-03T17:01:08.728Z,19.83
2019-04-03T17:03:38.138Z,19.83
2019-04-03T17:06:07.956Z,24.47
2019-04-03T17:08:37.381Z,36.93
2019-04-03T17:11:07.142Z,25.90
2019-04-03T17:13:36.529Z,42.13
2019-04-03T17:16:06.958Z,39.63
2019-04-03T17:18:37.148Z,36.37
2019-04-03T17:21:06.606Z,24.77
2019-04-03T17:23:36.014Z,23.33
2019-04-03T17:26:09.229Z,21.63
2019-04-03T17:28:37.991Z,20.93
2019-04-03T17:31:07.669Z,20.27
2019-04-03T17:33:37.278Z,20.57
2019-04-03T17:36:06.790Z,22.30
2019-04-03T17:38:36.798Z,21.80
2019-04-03T17:41:06.986Z,23.90
2019-04-03T17:43:37.009Z,22.20
2019-04-03T17:46:06.569Z,23.50
2019-04-03T17:48:36.157Z,23.30
2019-04-03T17:51:05.651Z,23.00
2019-04-03T17:53:36.635Z,24.27
2019-04-03T17:56:06.497Z,23.63
2019-04-03T17:58:35.973Z,23.37
2019-04-03T18:01:05.714Z,23.37
2019-04-03T18:03:35.248Z,24.23
2019-04-03T18:06:05.172Z,23.10
2019-04-03T18:08:34.669Z,24.40
2019-04-03T18:11:04.129Z,23.53
2019-04-03T18:13:33.480Z,23.23
2019-04-03T18:16:03.161Z,23.40
2019-04-03T18:18:33.501Z,22.87
2019-04-03T18:21:03.438Z,23.93
2019-04-03T18:23:32.924Z,23.37
2019-04-03T18:26:02.296Z,23.77
2019-04-03T18:28:31.655Z,26.50
2019-04-03T18:31:02.826Z,25.10
2019-04-03T18:33:32.405Z,24.27
2019-04-03T18:36:01.874Z,25.07
2019-04-03T18:38:31.803Z,24.17
2019-04-03T18:41:04.023Z,23.27
2019-04-03T18:43:32.650Z,24.00
2019-04-03T18:46:02.257Z,23.77
2019-04-03T18:51:52.536Z,24.13
2019-04-03T18:54:22.077Z,22.63
2019-04-03T18:56:51.509Z,23.83
2019-04-03T18:59:20.972Z,23.83
2019-04-03T19:01:50.407Z,23.70
2019-04-03T19:04:19.813Z,25.60
2019-04-03T19:06:49.244Z,25.47
2019-04-03T19:09:21.063Z,25.27
2019-04-03T19:11:51.453Z,27.53
2019-04-03T19:14:26.976Z,27.40
2019-04-03T19:16:54.202Z,25.93
2019-04-03T19:19:23.855Z,26.70
2019-04-03T19:21:54.760Z,26.87
2019-04-03T19:24:25.256Z,23.17
2019-04-03T19:27:02.187Z,20.00
2019-04-03T19:29:30.968Z,17.13
2019-04-03T19:32:23.811Z,20.97
2019-04-03T19:34:55.495Z,22.20
2019-04-03T19:37:24.908Z,24.53
2019-04-03T19:40:13.006Z,21.63
2019-04-03T19:42:44.804Z,22.87
2019-04-03T19:45:14.411Z,24.60
2019-04-03T19:47:43.885Z,25.43
2019-04-03T19:50:13.523Z,22.63
2019-04-03T19:52:42.935Z,22.97
2019-04-03T19:55:12.534Z,21.83
2019-04-03T19:57:42.039Z,22.77
2019-04-03T20:00:11.904Z,23.30
2019-04-03T20:02:46.436Z,21.90
2019-04-03T20:05:32.713Z,24.93
2019-04-03T20:08:10.271Z,26.67
2019-04-03T20:10:59.484Z,26.90
2019-04-03T20:13:28.892Z,23.67
2019-04-03T20:15:58.332Z,24.30
2019-04-03T20:18:27.846Z,21.50
2019-04-03T20:20:57.318Z,18.87
2019-04-03T20:23:26.801Z,18.63
2019-04-03T20:25:56.183Z,25.80
2019-04-03T20:28:25.778Z,28.30
2019-04-03T20:30:55.581Z,28.47
2019-04-03T20:33:25.062Z,27.70
2019-04-03T20:35:54.501Z,27.90
2019-04-03T20:38:25.585Z,29.87
2019-04-03T20:40:55.197Z,29.30
2019-04-03T20:43:30.295Z,27.37
2019-04-03T20:46:19.722Z,29.50
2019-04-03T20:49:15.292Z,26.63
2019-04-03T20:51:48.733Z,30.37
2019-04-03T20:54:19.204Z,27.87
2019-04-03T20:56:57.793Z,29.77
2019-04-03T20:59:20.747Z,27.10
2019-04-03T21:01:50.386Z,26.47
2019-04-03T21:04:19.756Z,25.57
2019-04-03T21:06:51.576Z,26.83
2019-04-03T21:09:20.225Z,28.10
2019-04-03T21:11:49.624Z,29.63
2019-04-03T21:14:19.140Z,28.37
2019-04-03T21:16:48.663Z,28.83
2019-04-03T21:19:18.041Z,29.53
2019-04-03T21:21:47.412Z,31.07
2019-04-03T21:24:16.781Z,27.87
2019-04-03T21:26:46.401Z,29.43
2019-04-03T21:29:21.006Z,29.93
2019-04-03T21:31:50.431Z,26.63
2019-04-03T21:34:19.869Z,33.60
2019-04-03T21:36:49.273Z,28.57
2019-04-03T21:39:18.656Z,30.70
2019-04-03T21:41:48.019Z,30.50
2019-04-03T21:47:20.767Z,25.13
2019-04-03T21:49:50.157Z,24.53
2019-04-03T21:52:20.922Z,27.07
2019-04-03T21:54:50.599Z,25.77
2019-04-03T21:57:20.080Z,27.03
2019-04-03T21:59:49.439Z,27.50
2019-04-03T22:02:18.853Z,28.47
2019-04-03T22:04:48.292Z,28.63
2019-04-03T22:07:17.706Z,28.73
2019-04-03T22:10:13.568Z,25.50
2019-04-03T22:12:43.720Z,26.53
2019-04-03T22:15:14.334Z,22.47
2019-04-03T22:17:44.025Z,23.23
2019-04-03T22:20:23.658Z,21.43
2019-04-03T22:22:54.813Z,24.40
2019-04-03T22:25:24.205Z,27.47
2019-04-03T22:27:53.572Z,27.40
2019-04-03T22:30:22.933Z,29.80
2019-04-03T22:32:53.969Z,29.87
2019-04-03T22:35:23.482Z,27.77
2019-04-03T22:37:52.846Z,28.90
2019-04-03T22:40:22.251Z,31.37
2019-04-03T22:42:51.635Z,32.73
2019-04-03T22:45:21.035Z,35.20
2019-04-03T22:48:01.520Z,35.10
2019-04-03T22:50:23.604Z,36.77
2019-04-03T22:52:52.978Z,38.30
2019-04-03T22:55:22.454Z,34.10
2019-04-03T22:57:51.833Z,36.47
2019-04-03T23:00:21.204Z,34.83
2019-04-03T23:02:50.655Z,32.20
2019-04-03T23:05:20.305Z,33.63
2019-04-03T23:07:51.771Z,32.60
2019-04-03T23:10:20.766Z,32.73
2019-04-03T23:13:16.578Z,34.47
2019-04-03T23:15:48.734Z,36.43
2019-04-03T23:18:18.119Z,36.30
2019-04-03T23:20:47.454Z,36.57
2019-04-03T23:23:16.817Z,35.60
2019-04-03T23:25:46.166Z,37.90
2019-04-03T23:28:15.713Z,36.00
2019-04-03T23:30:45.092Z,37.97
2019-04-03T23:33:16.614Z,36.23
2019-04-03T23:35:45.524Z,37.83
2019-04-03T23:38:14.870Z,39.50
2019-04-03T23:40:44.230Z,38.63
2019-04-03T23:43:13.579Z,42.70
2019-04-03T23:45:43.789Z,43.67
2019-04-03T23:48:13.611Z,41.93
2019-04-03T23:50:42.960Z,42.93
2019-04-03T23:53:12.314Z,43.70
2019-04-03T23:55:41.795Z,43.47
2019-04-03T23:58:11.472Z,42.03
